Time;durP1;ratioP1;P1;durP2;ratioP2;P2;SDS_P1;SDS_P2;PMS_P1;PMS_P2;Temp;Humidity;BMP_temperature;BMP_pressure;BME280_temperature;BME280_humidity;BME280_pressure;Samples;Min_cycle;Max_cycle;Signal;HPM_P1;HPM_P2
2021/03/09 00:00:34;;;;;;;4.20;3.60;;;;;;;;;;5063744;28;20701;-75
2021/03/09 00:03:00;;;;;;;8.52;4.20;;;;;;;;;;5046175;28;20643;-76
2021/03/09 00:05:26;;;;;;;5.57;4.15;;;;;;;;;;5047320;28;20192;-76
2021/03/09 00:07:52;;;;;;;5.15;4.07;;;;;;;;;;5059223;28;20298;-77
2021/03/09 00:10:18;;;;;;;5.97;4.10;;;;;;;;;;5049899;28;20813;-75
2021/03/09 00:12:44;;;;;;;8.10;4.45;;;;;;;;;;5057227;28;20239;-75
2021/03/09 00:15:10;;;;;;;6.65;4.70;;;;;;;;;;5044464;28;20185;-76
2021/03/09 00:17:36;;;;;;;5.25;3.78;;;;;;;;;;5050299;28;20185;-75
2021/03/09 00:20:03;;;;;;;5.60;4.22;;;;;;;;;;5050056;28;20177;-75
2021/03/09 00:22:29;;;;;;;5.68;4.03;;;;;;;;;;5050675;28;20181;-75
2021/03/09 00:24:55;;;;;;;7.15;4.15;;;;;;;;;;5046315;28;20177;-75
2021/03/09 00:27:21;;;;;;;4.95;4.20;;;;;;;;;;5069592;28;20625;-77
2021/03/09 00:29:47;;;;;;;6.97;3.95;;;;;;;;;;5057892;28;20181;-74
2021/03/09 00:32:14;;;;;;;6.82;4.40;;;;;;;;;;5050017;28;20209;-75
2021/03/09 00:34:40;;;;;;;5.15;3.90;;;;;;;;;;5049951;28;20284;-74
2021/03/09 00:37:06;;;;;;;6.30;4.30;;;;;;;;;;5050485;28;20200;-73
2021/03/09 00:39:32;;;;;;;6.55;4.50;;;;;;;;;;5038530;28;20722;-77
2021/03/09 00:41:58;;;;;;;4.57;3.97;;;;;;;;;;5049549;28;20517;-76
2021/03/09 00:44:25;;;;;;;5.05;3.55;;;;;;;;;;5049111;28;20219;-76
2021/03/09 00:46:51;;;;;;;4.18;3.78;;;;;;;;;;5048972;28;20598;-75
2021/03/09 00:49:18;;;;;;;7.40;3.95;;;;;;;;;;5048778;28;20526;-76
2021/03/09 00:51:44;;;;;;;6.38;4.03;;;;;;;;;;5040614;28;20196;-75
2021/03/09 00:54:10;;;;;;;6.88;4.43;;;;;;;;;;5052856;28;20205;-76
2021/03/09 00:56:36;;;;;;;4.40;3.78;;;;;;;;;;5076022;28;20168;-75
2021/03/09 00:59:02;;;;;;;5.30;3.28;;;;;;;;;;5076904;28;20172;-76
2021/03/09 01:01:29;;;;;;;4.10;3.70;;;;;;;;;;5052756;28;20177;-74
2021/03/09 01:03:55;;;;;;;4.95;3.70;;;;;;;;;;5053222;28;20193;-75
2021/03/09 01:06:21;;;;;;;4.07;3.38;;;;;;;;;;5053517;28;20196;-76
2021/03/09 01:08:47;;;;;;;5.90;3.92;;;;;;;;;;5053449;28;20188;-73
2021/03/09 01:11:13;;;;;;;5.05;3.80;;;;;;;;;;5053584;28;20565;-76
2021/03/09 01:13:39;;;;;;;4.85;3.97;;;;;;;;;;5053504;28;20288;-75
2021/03/09 01:16:05;;;;;;;4.63;3.75;;;;;;;;;;5040953;28;20211;-74
2021/03/09 01:18:31;;;;;;;5.00;3.97;;;;;;;;;;5053144;28;20177;-74
2021/03/09 01:20:57;;;;;;;5.82;4.10;;;;;;;;;;5052458;28;20691;-75
2021/03/09 01:23:23;;;;;;;5.03;3.63;;;;;;;;;;5052815;28;20243;-74
2021/03/09 01:25:49;;;;;;;4.10;3.15;;;;;;;;;;5053651;28;20207;-74
2021/03/09 01:28:15;;;;;;;7.15;3.75;;;;;;;;;;5053497;28;20220;-75
2021/03/09 01:30:41;;;;;;;4.03;3.50;;;;;;;;;;5052663;28;20205;-75
2021/03/09 01:33:07;;;;;;;4.15;3.50;;;;;;;;;;5067019;28;20197;-74
2021/03/09 01:35:33;;;;;;;4.40;3.70;;;;;;;;;;5073485;28;20257;-75
2021/03/09 01:37:59;;;;;;;4.45;3.70;;;;;;;;;;5073013;28;20562;-73
2021/03/09 01:40:25;;;;;;;6.90;3.30;;;;;;;;;;5073186;28;20188;-75
2021/03/09 01:42:51;;;;;;;4.60;4.00;;;;;;;;;;5072647;28;20199;-75
2021/03/09 01:45:18;;;;;;;4.88;3.42;;;;;;;;;;5054290;28;20642;-73
2021/03/09 01:47:45;;;;;;;4.55;3.67;;;;;;;;;;5052921;28;20617;-76
2021/03/09 01:50:12;;;;;;;4.15;3.53;;;;;;;;;;5053978;28;20184;-76
2021/03/09 01:52:39;;;;;;;4.22;3.25;;;;;;;;;;5057164;28;20169;-74
2021/03/09 01:55:06;;;;;;;4.82;3.55;;;;;;;;;;5057092;28;20172;-76
2021/03/09 01:57:32;;;;;;;4.35;3.95;;;;;;;;;;5057005;28;20187;-74
2021/03/09 01:59:59;;;;;;;4.60;3.60;;;;;;;;;;5057061;28;20184;-75
2021/03/09 02:02:25;;;;;;;7.72;4.30;;;;;;;;;;5055256;28;20181;-75
2021/03/09 02:04:51;;;;;;;6.78;4.60;;;;;;;;;;5056764;28;20324;-74
2021/03/09 02:07:17;;;;;;;6.28;4.63;;;;;;;;;;5053921;28;20256;-75
2021/03/09 02:09:43;;;;;;;4.93;3.55;;;;;;;;;;5056912;28;20222;-75
2021/03/09 02:12:30;;;;;;;5.07;3.70;;;;;;;;;;5056927;28;20209;-75
2021/03/09 02:15:14;;;;;;;4.93;3.60;;;;;;;;;;5056065;28;20184;-75
2021/03/09 02:17:44;;;;;;;5.47;4.18;;;;;;;;;;5043975;28;20177;-73
2021/03/09 02:20:25;;;;;;;5.72;4.00;;;;;;;;;;5057736;28;20169;-75
2021/03/09 02:23:07;;;;;;;5.60;3.35;;;;;;;;;;5055917;28;20193;-75
2021/03/09 02:25:33;;;;;;;5.85;4.07;;;;;;;;;;5054949;28;20176;-75
2021/03/09 02:28:11;;;;;;;5.82;4.10;;;;;;;;;;5056806;28;20177;-74
2021/03/09 02:30:47;;;;;;;6.18;3.75;;;;;;;;;;5056022;28;20585;-75
2021/03/09 02:33:25;;;;;;;6.05;4.00;;;;;;;;;;5066162;28;20203;-75
2021/03/09 02:36:00;;;;;;;4.68;3.72;;;;;;;;;;5044483;28;20180;-76
2021/03/09 02:38:28;;;;;;;3.95;3.55;;;;;;;;;;5043654;28;20304;-76
2021/03/09 02:40:56;;;;;;;5.00;3.40;;;;;;;;;;5056413;28;20176;-77
2021/03/09 02:43:23;;;;;;;6.50;3.60;;;;;;;;;;5055812;28;20673;-75
2021/03/09 02:45:51;;;;;;;4.65;3.92;;;;;;;;;;5053665;28;20189;-76
2021/03/09 02:48:20;;;;;;;5.63;4.10;;;;;;;;;;5074255;28;20183;-78
2021/03/09 02:50:47;;;;;;;5.95;4.10;;;;;;;;;;5051848;28;20209;-76
2021/03/09 02:53:15;;;;;;;5.28;3.63;;;;;;;;;;5061996;28;20243;-77
2021/03/09 02:55:42;;;;;;;6.30;3.70;;;;;;;;;;5055567;28;20630;-75
2021/03/09 02:58:09;;;;;;;4.45;3.42;;;;;;;;;;5056033;28;20621;-76
2021/03/09 03:00:39;;;;;;;4.47;3.50;;;;;;;;;;5047758;28;20539;-75
2021/03/09 03:03:07;;;;;;;5.05;3.72;;;;;;;;;;5055143;28;20212;-74
2021/03/09 03:05:34;;;;;;;4.85;3.88;;;;;;;;;;5051541;28;20200;-74
2021/03/09 03:08:00;;;;;;;5.78;3.80;;;;;;;;;;5049410;28;20621;-75
2021/03/09 03:10:27;;;;;;;4.13;3.47;;;;;;;;;;5055762;28;20331;-76
2021/03/09 03:12:53;;;;;;;6.25;3.55;;;;;;;;;;5055406;28;20738;-76
2021/03/09 03:15:20;;;;;;;4.65;3.70;;;;;;;;;;5055668;28;20231;-76
2021/03/09 03:17:47;;;;;;;4.78;3.70;;;;;;;;;;5054827;28;20173;-74
2021/03/09 03:20:14;;;;;;;5.47;3.25;;;;;;;;;;5063331;28;20256;-74
2021/03/09 03:22:41;;;;;;;5.32;3.83;;;;;;;;;;5056994;28;20294;-74
2021/03/09 03:25:08;;;;;;;4.00;3.35;;;;;;;;;;5054760;28;20533;-75
2021/03/09 03:27:35;;;;;;;5.18;3.70;;;;;;;;;;5054258;28;20184;-75
2021/03/09 03:30:01;;;;;;;4.80;4.28;;;;;;;;;;5061009;28;20177;-74
2021/03/09 03:32:27;;;;;;;8.48;4.35;;;;;;;;;;5055417;28;20177;-75
2021/03/09 03:34:54;;;;;;;4.18;3.50;;;;;;;;;;5054738;28;20619;-76
2021/03/09 03:37:20;;;;;;;5.32;3.45;;;;;;;;;;5051454;28;20177;-76
2021/03/09 03:39:46;;;;;;;3.97;3.45;;;;;;;;;;5054701;28;20588;-76
2021/03/09 03:42:12;;;;;;;4.97;3.50;;;;;;;;;;5055338;28;20189;-75
2021/03/09 03:44:38;;;;;;;8.45;3.70;;;;;;;;;;5050695;28;20202;-75
2021/03/09 03:47:04;;;;;;;5.60;3.70;;;;;;;;;;5068375;28;20188;-76
2021/03/09 03:49:30;;;;;;;5.88;3.97;;;;;;;;;;5066572;28;20208;-73
2021/03/09 03:52:02;;;;;;;5.50;3.72;;;;;;;;;;5054556;28;20208;-75
2021/03/09 03:54:36;;;;;;;6.38;4.15;;;;;;;;;;5048389;28;20196;-75
2021/03/09 03:57:07;;;;;;;5.25;3.88;;;;;;;;;;5056471;28;20185;-75
2021/03/09 03:59:36;;;;;;;4.95;3.50;;;;;;;;;;5047440;28;20222;-75
2021/03/09 04:02:04;;;;;;;5.15;4.03;;;;;;;;;;5038476;28;20174;-77
2021/03/09 04:04:31;;;;;;;4.90;3.85;;;;;;;;;;5059115;28;20208;-76
2021/03/09 04:06:57;;;;;;;4.80;3.55;;;;;;;;;;5062943;28;20180;-76
2021/03/09 04:09:25;;;;;;;5.30;3.72;;;;;;;;;;5054468;28;20173;-75
2021/03/09 04:11:51;;;;;;;7.05;3.85;;;;;;;;;;5054818;28;20527;-74
2021/03/09 04:14:18;;;;;;;5.50;3.40;;;;;;;;;;5044374;28;20204;-75
2021/03/09 04:16:46;;;;;;;4.97;3.83;;;;;;;;;;5054008;28;20191;-75
2021/03/09 04:19:13;;;;;;;3.75;3.35;;;;;;;;;;5055039;28;20173;-76
2021/03/09 04:21:39;;;;;;;6.78;3.80;;;;;;;;;;5054042;28;20185;-75
2021/03/09 04:24:06;;;;;;;5.43;3.80;;;;;;;;;;5054097;28;20235;-77
2021/03/09 04:26:33;;;;;;;4.00;3.13;;;;;;;;;;5047666;28;20494;-75
2021/03/09 04:28:59;;;;;;;6.93;3.80;;;;;;;;;;5054949;28;20495;-75
2021/03/09 04:31:26;;;;;;;6.95;3.58;;;;;;;;;;5054284;28;20209;-74
2021/03/09 04:33:52;;;;;;;4.57;3.60;;;;;;;;;;5053909;28;20276;-75
2021/03/09 04:36:19;;;;;;;6.50;3.30;;;;;;;;;;5054086;28;20211;-76
2021/03/09 04:38:45;;;;;;;6.10;3.45;;;;;;;;;;5054017;28;20192;-76
2021/03/09 04:41:11;;;;;;;4.00;3.13;;;;;;;;;;5053968;28;20189;-76
2021/03/09 04:43:38;;;;;;;4.15;3.42;;;;;;;;;;5040403;28;20272;-76
2021/03/09 04:46:04;;;;;;;5.18;3.10;;;;;;;;;;5053696;28;20185;-75
2021/03/09 04:48:30;;;;;;;4.50;3.05;;;;;;;;;;5047491;28;20184;-76
2021/03/09 04:51:23;;;;;;;6.43;3.58;;;;;;;;;;5059931;28;20243;-75
2021/03/09 04:53:49;;;;;;;5.07;3.60;;;;;;;;;;5054486;28;20212;-76
2021/03/09 04:56:15;;;;;;;4.85;3.38;;;;;;;;;;5050782;28;20176;-76
2021/03/09 04:58:41;;;;;;;4.10;3.40;;;;;;;;;;5053967;28;20169;-74
2021/03/09 05:01:07;;;;;;;7.03;4.68;;;;;;;;;;5044716;28;20177;-75
2021/03/09 05:03:34;;;;;;;5.15;3.50;;;;;;;;;;5053637;28;20192;-75
2021/03/09 05:06:01;;;;;;;8.63;4.32;;;;;;;;;;5048456;28;20181;-75
2021/03/09 05:08:27;;;;;;;5.15;3.65;;;;;;;;;;5046490;28;20198;-74
2021/03/09 05:10:54;;;;;;;6.80;4.07;;;;;;;;;;5052150;28;20200;-76
2021/03/09 05:13:20;;;;;;;7.82;3.85;;;;;;;;;;5073278;28;20275;-76
2021/03/09 05:15:46;;;;;;;5.47;3.50;;;;;;;;;;5055811;28;20181;-74
2021/03/09 05:18:12;;;;;;;5.22;4.32;;;;;;;;;;5053623;28;20178;-73
2021/03/09 05:20:39;;;;;;;6.78;4.60;;;;;;;;;;5052455;28;20180;-74
2021/03/09 05:23:06;;;;;;;5.65;4.00;;;;;;;;;;5052458;28;20205;-74
2021/03/09 05:25:32;;;;;;;5.18;3.92;;;;;;;;;;5052475;28;20180;-75
2021/03/09 05:27:58;;;;;;;8.18;4.05;;;;;;;;;;5052594;28;20711;-75
2021/03/09 05:30:24;;;;;;;5.43;4.20;;;;;;;;;;5053091;28;20208;-74
2021/03/09 05:32:50;;;;;;;7.30;4.18;;;;;;;;;;5047993;28;20262;-76
2021/03/09 05:35:17;;;;;;;5.72;4.00;;;;;;;;;;5053187;28;20177;-74
2021/03/09 05:37:44;;;;;;;7.43;4.65;;;;;;;;;;5053083;28;20621;-77
2021/03/09 05:40:11;;;;;;;5.72;3.90;;;;;;;;;;5053248;28;20177;-76
2021/03/09 05:42:37;;;;;;;5.95;4.18;;;;;;;;;;5052527;28;20187;-75
2021/03/09 05:45:04;;;;;;;5.65;4.88;;;;;;;;;;5052460;28;20179;-75
2021/03/09 05:47:30;;;;;;;6.20;4.75;;;;;;;;;;5053673;28;20184;-75
2021/03/09 05:49:58;;;;;;;9.30;4.50;;;;;;;;;;5050381;28;20181;-75
2021/03/09 05:52:24;;;;;;;5.68;4.35;;;;;;;;;;5052489;28;20197;-73
2021/03/09 05:54:50;;;;;;;8.25;4.95;;;;;;;;;;5052598;28;20193;-75
2021/03/09 05:57:16;;;;;;;8.13;4.93;;;;;;;;;;5053114;28;20184;-76
2021/03/09 05:59:42;;;;;;;6.45;4.72;;;;;;;;;;5049796;28;20180;-75
2021/03/09 06:02:08;;;;;;;6.43;4.55;;;;;;;;;;5055844;28;20622;-75
2021/03/09 06:04:35;;;;;;;11.63;5.30;;;;;;;;;;5052126;28;20220;-76
2021/03/09 06:07:01;;;;;;;6.68;4.60;;;;;;;;;;5050883;28;20203;-74
2021/03/09 06:09:33;;;;;;;10.50;4.78;;;;;;;;;;5052287;28;20593;-76
2021/03/09 06:12:10;;;;;;;6.45;4.63;;;;;;;;;;5051469;28;20728;-75
2021/03/09 06:15:00;;;;;;;9.68;5.57;;;;;;;;;;5052074;28;20526;-76
2021/03/09 06:17:26;;;;;;;8.75;5.97;;;;;;;;;;5044369;28;20189;-77
2021/03/09 06:19:52;;;;;;;8.05;5.30;;;;;;;;;;5055752;28;20180;-76
2021/03/09 06:22:19;;;;;;;8.32;5.20;;;;;;;;;;5050783;28;20184;-78
2021/03/09 06:24:46;;;;;;;6.20;5.10;;;;;;;;;;5051807;28;20221;-74
2021/03/09 06:27:38;;;;;;;9.05;4.93;;;;;;;;;;5052978;28;20177;-75
2021/03/09 06:30:05;;;;;;;6.10;4.75;;;;;;;;;;5051601;28;20193;-76
2021/03/09 06:32:38;;;;;;;8.25;5.22;;;;;;;;;;5042645;28;20202;-75
2021/03/09 06:35:05;;;;;;;7.70;4.90;;;;;;;;;;5051563;28;20177;-74
2021/03/09 06:37:31;;;;;;;7.45;4.63;;;;;;;;;;5054444;28;20657;-77
2021/03/09 06:40:02;;;;;;;10.10;7.72;;;;;;;;;;5046666;28;20168;-77
2021/03/09 06:42:32;;;;;;;6.82;5.35;;;;;;;;;;5055940;28;20234;-75
2021/03/09 06:45:00;;;;;;;6.80;4.40;;;;;;;;;;5055874;28;20173;-75
2021/03/09 06:47:32;;;;;;;8.55;5.25;;;;;;;;;;5067831;28;20263;-76
2021/03/09 06:49:59;;;;;;;7.13;4.72;;;;;;;;;;5057015;28;21068;-76
2021/03/09 06:52:25;;;;;;;5.18;4.65;;;;;;;;;;5054655;28;20204;-76
2021/03/09 06:54:52;;;;;;;7.18;4.68;;;;;;;;;;5055386;28;20201;-77
2021/03/09 06:57:19;;;;;;;7.43;4.90;;;;;;;;;;5056107;28;20569;-76
2021/03/09 06:59:47;;;;;;;7.65;4.90;;;;;;;;;;5056080;28;20207;-74
2021/03/09 07:02:20;;;;;;;9.00;5.50;;;;;;;;;;5055809;28;20708;-77
2021/03/09 07:04:47;;;;;;;7.20;5.15;;;;;;;;;;5046538;28;20204;-77
2021/03/09 07:07:15;;;;;;;7.07;4.63;;;;;;;;;;5055817;28;20196;-77
2021/03/09 07:09:46;;;;;;;8.30;5.60;;;;;;;;;;5056238;28;20180;-75
2021/03/09 07:12:12;;;;;;;8.05;6.03;;;;;;;;;;5058763;28;20201;-74
2021/03/09 07:14:39;;;;;;;9.63;6.10;;;;;;;;;;5050039;28;20561;-75
2021/03/09 07:17:06;;;;;;;7.00;5.50;;;;;;;;;;5049569;28;20188;-74
2021/03/09 07:19:36;;;;;;;6.00;5.10;;;;;;;;;;5050534;28;20190;-76
2021/03/09 07:22:04;;;;;;;12.80;6.53;;;;;;;;;;5055520;28;20177;-76
2021/03/09 07:24:30;;;;;;;7.50;4.97;;;;;;;;;;5071737;28;20556;-75
2021/03/09 07:27:00;;;;;;;10.90;5.43;;;;;;;;;;5072138;28;20180;-76
2021/03/09 07:29:27;;;;;;;10.10;5.57;;;;;;;;;;5063306;28;20196;-78
2021/03/09 07:31:56;;;;;;;7.20;5.80;;;;;;;;;;5056540;28;20208;-74
2021/03/09 07:34:23;;;;;;;6.03;5.43;;;;;;;;;;5057271;28;20595;-74
2021/03/09 07:36:50;;;;;;;13.07;6.28;;;;;;;;;;5051292;28;20534;-74
2021/03/09 07:39:18;;;;;;;15.38;7.63;;;;;;;;;;5050790;28;20216;-76
2021/03/09 07:41:44;;;;;;;10.48;7.35;;;;;;;;;;5057347;28;20208;-74
2021/03/09 07:44:11;;;;;;;9.45;7.32;;;;;;;;;;5046044;28;20288;-75
2021/03/09 07:46:37;;;;;;;11.25;7.90;;;;;;;;;;5052165;28;20598;-74
2021/03/09 07:49:03;;;;;;;10.57;6.50;;;;;;;;;;5051403;28;20188;-76
2021/03/09 07:51:29;;;;;;;11.95;7.13;;;;;;;;;;5039195;28;20200;-76
2021/03/09 07:54:08;;;;;;;13.30;8.82;;;;;;;;;;5036462;28;20206;-74
2021/03/09 07:56:34;;;;;;;10.88;7.50;;;;;;;;;;5037602;28;20181;-75
2021/03/09 07:59:07;;;;;;;9.60;7.00;;;;;;;;;;5051780;28;20681;-76
2021/03/09 08:01:47;;;;;;;11.63;7.55;;;;;;;;;;5044053;28;20198;-76
2021/03/09 08:04:13;;;;;;;10.75;7.45;;;;;;;;;;5061409;28;20197;-76
2021/03/09 08:06:43;;;;;;;11.70;6.93;;;;;;;;;;5053398;28;21603;-76
2021/03/09 08:09:29;;;;;;;11.13;8.57;;;;;;;;;;5052370;28;20544;-75
2021/03/09 08:11:55;;;;;;;16.92;7.40;;;;;;;;;;5051277;28;20242;-77
2021/03/09 08:14:22;;;;;;;14.18;8.43;;;;;;;;;;5050878;28;20224;-77
2021/03/09 08:16:49;;;;;;;16.13;11.60;;;;;;;;;;5051907;28;20185;-76
2021/03/09 08:19:25;;;;;;;14.45;8.45;;;;;;;;;;5050158;28;20199;-75
2021/03/09 08:21:57;;;;;;;10.93;8.20;;;;;;;;;;5050742;28;20176;-75
2021/03/09 08:24:41;;;;;;;12.45;8.18;;;;;;;;;;5045750;28;20610;-77
2021/03/09 08:27:26;;;;;;;11.32;8.25;;;;;;;;;;5066703;28;20230;-77
2021/03/09 08:29:52;;;;;;;12.63;7.70;;;;;;;;;;5050119;28;20209;-76
2021/03/09 08:32:24;;;;;;;11.65;8.50;;;;;;;;;;5070402;28;20236;-76
2021/03/09 08:34:50;;;;;;;12.05;8.07;;;;;;;;;;5054197;28;20200;-77
2021/03/09 08:37:29;;;;;;;13.27;8.95;;;;;;;;;;5038012;28;20185;-75
2021/03/09 08:40:05;;;;;;;13.68;8.75;;;;;;;;;;5049719;28;20926;-75
2021/03/09 08:42:51;;;;;;;14.10;8.18;;;;;;;;;;5050180;28;20184;-75
2021/03/09 08:45:32;;;;;;;19.63;9.25;;;;;;;;;;5070687;28;20212;-77
2021/03/09 08:47:58;;;;;;;14.52;9.32;;;;;;;;;;5055887;28;20352;-77
2021/03/09 08:50:39;;;;;;;11.98;8.63;;;;;;;;;;5039145;28;20226;-76
2021/03/09 08:53:05;;;;;;;16.27;9.50;;;;;;;;;;5049196;28;20197;-76
2021/03/09 08:55:31;;;;;;;14.00;9.18;;;;;;;;;;5050064;28;20173;-76
2021/03/09 08:57:57;;;;;;;13.25;9.35;;;;;;;;;;5045176;28;20208;-77
2021/03/09 09:00:23;;;;;;;19.05;9.88;;;;;;;;;;5051886;28;20183;-76
2021/03/09 09:02:49;;;;;;;16.13;9.95;;;;;;;;;;5054260;28;20185;-76
2021/03/09 09:05:16;;;;;;;18.40;11.95;;;;;;;;;;5050038;28;20223;-74
2021/03/09 09:07:43;;;;;;;16.42;10.93;;;;;;;;;;5049407;28;20160;-77
2021/03/09 09:10:14;;;;;;;27.35;16.38;;;;;;;;;;5039298;28;20291;-75
2021/03/09 09:12:41;;;;;;;13.20;9.52;;;;;;;;;;5049683;28;20185;-75
2021/03/09 09:15:19;;;;;;;20.63;9.85;;;;;;;;;;5048706;28;20181;-76
2021/03/09 09:17:49;;;;;;;15.15;10.82;;;;;;;;;;5044242;28;20268;-76
2021/03/09 09:20:17;;;;;;;15.35;10.30;;;;;;;;;;5049221;28;20574;-75
2021/03/09 09:22:43;;;;;;;16.33;10.13;;;;;;;;;;5041089;28;20192;-76
2021/03/09 09:25:10;;;;;;;14.90;10.65;;;;;;;;;;5046720;28;20181;-76
2021/03/09 09:27:37;;;;;;;14.88;10.43;;;;;;;;;;5038595;28;20558;-76
2021/03/09 09:30:04;;;;;;;15.05;10.80;;;;;;;;;;5049804;28;20188;-78
2021/03/09 09:32:42;;;;;;;13.32;10.68;;;;;;;;;;5044752;28;20206;-76
2021/03/09 09:35:08;;;;;;;16.88;11.15;;;;;;;;;;5051011;28;20267;-75
2021/03/09 09:37:35;;;;;;;13.07;9.60;;;;;;;;;;5046167;28;20544;-75
2021/03/09 09:40:04;;;;;;;14.80;9.80;;;;;;;;;;5045797;28;20189;-76
2021/03/09 09:42:30;;;;;;;16.38;9.40;;;;;;;;;;5049926;28;20212;-76
2021/03/09 09:44:56;;;;;;;15.05;9.73;;;;;;;;;;5062829;28;20637;-76
2021/03/09 09:47:23;;;;;;;14.23;9.75;;;;;;;;;;5069327;28;20273;-77
2021/03/09 09:49:49;;;;;;;16.52;10.23;;;;;;;;;;5069402;28;20177;-74
2021/03/09 09:52:19;;;;;;;12.75;9.05;;;;;;;;;;5049887;28;20735;-76
2021/03/09 09:54:52;;;;;;;14.13;9.98;;;;;;;;;;5043980;28;20204;-76
2021/03/09 09:57:19;;;;;;;15.05;8.85;;;;;;;;;;5036788;28;20265;-76
2021/03/09 09:59:45;;;;;;;13.77;9.30;;;;;;;;;;5048786;28;20173;-73
2021/03/09 10:02:18;;;;;;;13.30;9.15;;;;;;;;;;5047560;28;20180;-75
2021/03/09 10:04:44;;;;;;;14.52;8.98;;;;;;;;;;5049630;28;20555;-76
2021/03/09 10:07:21;;;;;;;17.17;9.27;;;;;;;;;;5058441;28;20241;-77
2021/03/09 10:10:00;;;;;;;13.52;9.45;;;;;;;;;;5055196;28;20223;-75
2021/03/09 10:12:33;;;;;;;14.38;8.75;;;;;;;;;;5051975;28;20207;-74
2021/03/09 10:14:59;;;;;;;11.18;8.95;;;;;;;;;;5064614;28;20214;-76
2021/03/09 10:17:25;;;;;;;15.60;9.80;;;;;;;;;;5073569;28;20214;-76
2021/03/09 10:19:52;;;;;;;13.70;9.38;;;;;;;;;;5065195;28;20244;-75
2021/03/09 10:22:23;;;;;;;14.15;9.55;;;;;;;;;;5057483;28;20539;-76
2021/03/09 10:24:49;;;;;;;14.27;9.35;;;;;;;;;;5049757;28;20205;-75
2021/03/09 10:27:16;;;;;;;16.45;11.05;;;;;;;;;;5053385;28;20181;-75
2021/03/09 10:29:42;;;;;;;12.75;9.70;;;;;;;;;;5052911;28;20242;-74
2021/03/09 10:32:16;;;;;;;19.10;9.73;;;;;;;;;;5058104;28;20254;-75
2021/03/09 10:34:48;;;;;;;16.60;9.63;;;;;;;;;;5059667;28;20223;-77
2021/03/09 10:37:18;;;;;;;14.00;9.63;;;;;;;;;;5034077;28;20251;-76
2021/03/09 10:39:54;;;;;;;13.45;8.70;;;;;;;;;;5039302;28;20177;-76
2021/03/09 10:42:27;;;;;;;16.40;10.30;;;;;;;;;;5052250;28;20177;-74
2021/03/09 10:44:53;;;;;;;16.25;9.10;;;;;;;;;;5039727;28;20204;-75
2021/03/09 10:47:19;;;;;;;13.00;9.70;;;;;;;;;;5052484;28;20197;-79
2021/03/09 10:49:45;;;;;;;14.02;9.98;;;;;;;;;;5052520;28;20889;-77
2021/03/09 10:52:11;;;;;;;13.75;9.95;;;;;;;;;;5050890;28;20729;-77
2021/03/09 10:54:38;;;;;;;13.23;9.93;;;;;;;;;;5053095;28;20208;-76
2021/03/09 10:57:05;;;;;;;17.52;10.90;;;;;;;;;;5053124;28;20656;-76
2021/03/09 10:59:31;;;;;;;12.02;9.27;;;;;;;;;;5066774;28;20259;-75
2021/03/09 11:01:57;;;;;;;16.17;9.90;;;;;;;;;;5052125;28;20189;-76
2021/03/09 11:04:23;;;;;;;12.73;9.57;;;;;;;;;;5070277;28;20274;-76
2021/03/09 11:06:49;;;;;;;14.05;9.52;;;;;;;;;;5062115;28;20189;-76
2021/03/09 11:09:15;;;;;;;13.32;9.65;;;;;;;;;;5056818;28;20196;-75
2021/03/09 11:11:41;;;;;;;16.45;10.43;;;;;;;;;;5044470;28;20293;-77
2021/03/09 11:14:07;;;;;;;16.52;10.30;;;;;;;;;;5051414;28;20196;-76
2021/03/09 11:16:33;;;;;;;11.85;8.55;;;;;;;;;;5045537;28;20173;-77
2021/03/09 11:19:00;;;;;;;16.42;9.90;;;;;;;;;;5048238;28;20799;-76
2021/03/09 11:21:26;;;;;;;13.98;9.02;;;;;;;;;;5047622;28;20215;-78
2021/03/09 11:23:53;;;;;;;19.08;9.98;;;;;;;;;;5041956;28;20233;-76
2021/03/09 11:26:19;;;;;;;17.13;10.10;;;;;;;;;;5063461;28;20173;-76
2021/03/09 11:28:46;;;;;;;16.70;9.70;;;;;;;;;;5049880;28;20181;-76
2021/03/09 11:31:12;;;;;;;13.10;9.95;;;;;;;;;;5051591;28;20200;-76
2021/03/09 11:33:38;;;;;;;13.68;9.48;;;;;;;;;;5051507;28;20209;-75
2021/03/09 11:36:05;;;;;;;17.30;9.80;;;;;;;;;;5048937;28;20181;-77
2021/03/09 11:38:31;;;;;;;15.77;9.82;;;;;;;;;;5047804;28;20188;-73
2021/03/09 11:40:57;;;;;;;26.35;12.35;;;;;;;;;;5043993;28;20182;-74
2021/03/09 11:43:23;;;;;;;14.85;10.32;;;;;;;;;;5049102;28;20203;-76
2021/03/09 11:45:49;;;;;;;13.27;10.00;;;;;;;;;;5046263;28;20189;-75
2021/03/09 11:48:15;;;;;;;12.32;9.25;;;;;;;;;;5052973;28;20185;-78
2021/03/09 11:50:41;;;;;;;15.75;9.98;;;;;;;;;;5054287;28;20235;-75
2021/03/09 11:53:07;;;;;;;14.05;9.43;;;;;;;;;;5072634;28;20565;-77
2021/03/09 11:55:33;;;;;;;18.20;10.70;;;;;;;;;;5059890;28;20188;-77
2021/03/09 11:57:59;;;;;;;12.25;9.10;;;;;;;;;;5056702;28;20242;-77
2021/03/09 12:00:25;;;;;;;12.23;8.90;;;;;;;;;;5053370;28;20231;-80
2021/03/09 12:02:51;;;;;;;13.73;10.05;;;;;;;;;;5051221;28;20204;-77
2021/03/09 12:05:17;;;;;;;12.95;8.85;;;;;;;;;;5051491;28;20207;-77
2021/03/09 12:07:43;;;;;;;14.13;10.82;;;;;;;;;;5053638;28;20184;-76
2021/03/09 12:10:09;;;;;;;12.25;8.57;;;;;;;;;;5059347;28;20544;-77
2021/03/09 12:12:35;;;;;;;11.18;8.48;;;;;;;;;;5071176;28;20211;-77
2021/03/09 12:15:01;;;;;;;12.63;8.73;;;;;;;;;;5060677;28;20188;-76
2021/03/09 12:17:27;;;;;;;10.52;8.57;;;;;;;;;;5048879;28;20182;-75
2021/03/09 12:19:53;;;;;;;22.08;16.42;;;;;;;;;;5051204;28;20176;-79
2021/03/09 12:22:19;;;;;;;12.50;8.50;;;;;;;;;;5052679;28;20180;-74
2021/03/09 12:24:45;;;;;;;11.25;8.68;;;;;;;;;;5053295;28;20208;-76
2021/03/09 12:27:12;;;;;;;16.35;9.82;;;;;;;;;;5053966;28;20550;-74
2021/03/09 12:29:38;;;;;;;21.27;9.05;;;;;;;;;;5054714;28;20204;-74
2021/03/09 12:32:04;;;;;;;13.13;9.10;;;;;;;;;;5062425;28;20320;-73
2021/03/09 12:34:30;;;;;;;11.35;8.82;;;;;;;;;;5049329;28;20220;-71
2021/03/09 12:36:56;;;;;;;11.60;8.50;;;;;;;;;;5049982;28;20181;-74
2021/03/09 12:39:22;;;;;;;12.07;8.52;;;;;;;;;;5048602;28;20216;-71
2021/03/09 12:41:48;;;;;;;10.82;7.93;;;;;;;;;;5046497;28;20196;-73
2021/03/09 12:44:14;;;;;;;11.70;8.60;;;;;;;;;;5031955;28;20624;-72
2021/03/09 12:46:40;;;;;;;10.93;8.35;;;;;;;;;;5064306;28;20184;-73
2021/03/09 12:49:06;;;;;;;12.15;8.63;;;;;;;;;;5046171;28;20222;-74
2021/03/09 12:51:32;;;;;;;12.82;8.95;;;;;;;;;;5050162;28;20208;-74
2021/03/09 12:53:58;;;;;;;11.32;8.98;;;;;;;;;;5045770;28;20734;-75
2021/03/09 12:56:25;;;;;;;11.07;8.35;;;;;;;;;;5054743;28;20185;-73
2021/03/09 12:58:52;;;;;;;11.35;7.90;;;;;;;;;;5037857;28;20185;-72
2021/03/09 13:01:18;;;;;;;13.48;8.05;;;;;;;;;;5048876;28;20184;-73
2021/03/09 13:03:44;;;;;;;11.02;7.95;;;;;;;;;;5039224;28;20578;-74
2021/03/09 13:06:10;;;;;;;11.60;8.50;;;;;;;;;;5050123;28;20192;-71
2021/03/09 13:08:36;;;;;;;12.23;8.63;;;;;;;;;;5049581;28;20249;-72
2021/03/09 13:11:02;;;;;;;21.60;19.05;;;;;;;;;;5036655;28;20201;-72
2021/03/09 13:13:28;;;;;;;13.00;10.73;;;;;;;;;;5044052;28;20224;-72
2021/03/09 13:15:54;;;;;;;12.98;9.50;;;;;;;;;;5051364;28;20215;-73
2021/03/09 13:18:20;;;;;;;15.52;10.80;;;;;;;;;;5069661;28;20202;-72
2021/03/09 13:20:46;;;;;;;11.38;9.18;;;;;;;;;;5058276;28;20176;-75
2021/03/09 13:23:12;;;;;;;10.10;7.80;;;;;;;;;;5069531;28;20207;-72
2021/03/09 13:25:38;;;;;;;14.68;8.70;;;;;;;;;;5059043;28;20192;-74
2021/03/09 13:28:04;;;;;;;12.65;7.82;;;;;;;;;;5049912;28;20264;-72
2021/03/09 13:30:30;;;;;;;10.75;7.97;;;;;;;;;;5047457;28;20641;-71
2021/03/09 13:32:56;;;;;;;16.80;8.60;;;;;;;;;;5047156;28;20228;-72
2021/03/09 13:35:23;;;;;;;13.48;8.13;;;;;;;;;;5048434;28;20181;-73
2021/03/09 13:37:49;;;;;;;13.45;9.93;;;;;;;;;;5048723;28;20180;-73
2021/03/09 13:40:16;;;;;;;11.23;8.45;;;;;;;;;;5048400;28;20193;-73
2021/03/09 13:42:42;;;;;;;11.07;8.70;;;;;;;;;;5049086;28;20178;-74
2021/03/09 13:45:09;;;;;;;9.65;7.75;;;;;;;;;;5046502;28;20269;-72
2021/03/09 13:47:35;;;;;;;10.10;8.00;;;;;;;;;;5039731;28;20197;-73
2021/03/09 13:50:02;;;;;;;12.70;9.15;;;;;;;;;;5068375;28;20183;-71
2021/03/09 13:52:28;;;;;;;12.57;9.50;;;;;;;;;;5046940;28;20212;-73
2021/03/09 13:54:54;;;;;;;14.13;9.27;;;;;;;;;;5067589;28;20736;-74
2021/03/09 13:57:21;;;;;;;13.38;9.32;;;;;;;;;;5047313;28;20347;-73
2021/03/09 13:59:47;;;;;;;10.25;8.18;;;;;;;;;;5068170;28;20268;-72
2021/03/09 14:02:13;;;;;;;11.80;8.55;;;;;;;;;;5059855;28;20538;-73
2021/03/09 14:04:39;;;;;;;13.60;8.50;;;;;;;;;;5046337;28;20217;-72
2021/03/09 14:07:11;;;;;;;14.80;8.65;;;;;;;;;;5051511;28;20199;-74
2021/03/09 14:09:37;;;;;;;12.15;8.82;;;;;;;;;;5045462;28;20198;-72
2021/03/09 14:12:03;;;;;;;11.05;8.45;;;;;;;;;;5068701;28;20781;-74
2021/03/09 14:14:30;;;;;;;11.73;8.73;;;;;;;;;;5057876;28;20619;-73
2021/03/09 14:16:56;;;;;;;11.23;8.40;;;;;;;;;;5044472;28;20178;-73
2021/03/09 14:19:22;;;;;;;11.00;7.90;;;;;;;;;;5067424;28;20181;-73
2021/03/09 14:21:48;;;;;;;10.85;8.77;;;;;;;;;;5055917;28;20547;-74
2021/03/09 14:24:14;;;;;;;14.73;9.30;;;;;;;;;;5045079;28;20213;-72
2021/03/09 14:26:40;;;;;;;17.73;12.10;;;;;;;;;;5045572;28;20606;-74
2021/03/09 14:29:07;;;;;;;12.95;9.75;;;;;;;;;;5048907;28;20538;-75
2021/03/09 14:31:33;;;;;;;14.90;9.55;;;;;;;;;;5048464;28;20233;-73
2021/03/09 14:33:59;;;;;;;11.82;9.40;;;;;;;;;;5047476;28;20189;-74
2021/03/09 14:36:25;;;;;;;11.80;8.52;;;;;;;;;;5048259;28;20180;-73
2021/03/09 14:38:51;;;;;;;12.80;8.82;;;;;;;;;;5047348;28;20180;-74